createdAt,value
2023-01-13T00:02:22.303Z,5.24
2023-01-13T00:07:25.355Z,5.35
2023-01-13T00:12:27.103Z,5.38
2023-01-13T00:17:28.702Z,5.28
2023-01-13T00:22:34.359Z,5.30
2023-01-13T00:27:36.055Z,5.27
2023-01-13T00:32:37.723Z,5.13
2023-01-13T00:37:40.729Z,5.04
2023-01-13T00:42:42.385Z,5.17
2023-01-13T00:47:44.083Z,5.09
2023-01-13T00:52:47.081Z,5.14
2023-01-13T00:57:48.716Z,5.04
2023-01-13T01:02:50.732Z,5.32
2023-01-13T01:07:53.753Z,5.35
2023-01-13T01:12:55.415Z,5.29
2023-01-13T01:17:57.022Z,5.36
2023-01-13T01:22:59.998Z,5.29
2023-01-13T01:28:01.644Z,5.35
2023-01-13T01:33:03.435Z,5.36
2023-01-13T01:38:06.488Z,5.32
2023-01-13T01:43:14.614Z,5.22
2023-01-13T01:48:16.257Z,5.38
2023-01-13T01:53:24.254Z,5.22
2023-01-13T01:58:29.777Z,5.14
2023-01-13T02:03:31.533Z,5.04
2023-01-13T02:08:35.083Z,4.99
2023-01-13T02:13:36.683Z,5.07
2023-01-13T02:18:52.375Z,5.02
2023-01-13T02:24:33.600Z,5.07
2023-01-13T02:29:52.052Z,5.05
2023-01-13T02:35:04.518Z,5.07
2023-01-13T02:40:11.889Z,5.09
2023-01-13T02:45:19.344Z,5.02
2023-01-13T02:50:25.404Z,4.99
2023-01-13T02:55:31.466Z,5.06
2023-01-13T03:00:35.771Z,4.95
2023-01-13T03:05:38.166Z,5.03
2023-01-13T03:11:01.386Z,4.97
2023-01-13T03:16:16.480Z,4.90
2023-01-13T03:21:25.587Z,4.87
2023-01-13T03:26:34.447Z,4.90
2023-01-13T03:31:45.575Z,4.95
2023-01-13T03:36:50.839Z,4.86
2023-01-13T03:41:57.198Z,4.97
2023-01-13T03:47:06.153Z,4.89
2023-01-13T03:52:12.129Z,4.98
2023-01-13T03:57:16.222Z,4.88
2023-01-13T04:02:27.061Z,4.78
2023-01-13T04:07:37.073Z,4.84
2023-01-13T04:12:44.275Z,4.90
2023-01-13T04:17:47.135Z,4.81
2023-01-13T04:22:48.634Z,4.88
2023-01-13T04:27:50.187Z,4.89
2023-01-13T04:32:53.099Z,4.88
2023-01-13T04:37:54.688Z,5.04
2023-01-13T04:42:56.214Z,4.95
2023-01-13T04:47:59.342Z,4.88
2023-01-13T04:53:01.005Z,4.84
2023-01-13T04:58:04.131Z,4.93
2023-01-13T05:03:07.289Z,4.90
2023-01-13T05:08:08.778Z,4.90
2023-01-13T05:13:10.265Z,4.93
2023-01-13T05:18:13.309Z,4.96
2023-01-13T05:23:14.802Z,4.93
2023-01-13T05:28:16.626Z,4.97
2023-01-13T05:33:19.857Z,4.87
2023-01-13T05:38:21.746Z,4.89
2023-01-13T05:43:23.645Z,4.90
2023-01-13T05:48:28.499Z,4.88
2023-01-13T05:53:30.398Z,4.98
2023-01-13T05:58:31.868Z,5.14
2023-01-13T06:03:35.644Z,5.24
2023-01-13T06:08:39.618Z,5.21
2023-01-13T06:13:41.469Z,5.30
2023-01-13T06:18:44.315Z,5.29
2023-01-13T06:23:46.155Z,5.38
2023-01-13T06:28:47.681Z,5.31
2023-01-13T06:33:54.595Z,5.31
2023-01-13T06:38:59.583Z,5.43
2023-01-13T06:44:01.074Z,5.28
2023-01-13T06:49:03.996Z,5.32
2023-01-13T06:54:05.669Z,5.43
2023-01-13T06:59:07.402Z,5.43
2023-01-13T07:04:10.205Z,5.39
2023-01-13T07:09:11.780Z,5.30
2023-01-13T07:14:13.774Z,5.50
2023-01-13T07:19:16.656Z,5.50
2023-01-13T07:24:18.239Z,5.54
2023-01-13T07:29:19.852Z,5.51
2023-01-13T07:34:22.704Z,5.39
2023-01-13T07:39:24.167Z,5.52
2023-01-13T07:44:25.633Z,5.57
2023-01-13T07:49:28.588Z,5.41
2023-01-13T07:54:40.211Z,5.55
2023-01-13T07:59:42.649Z,5.48
2023-01-13T08:04:45.544Z,5.57
2023-01-13T08:09:47.091Z,5.56
2023-01-13T08:14:48.575Z,5.67
2023-01-13T08:19:51.527Z,5.61
2023-01-13T08:24:53.027Z,5.57
2023-01-13T08:29:54.509Z,5.63
2023-01-13T08:34:57.309Z,5.70
2023-01-13T08:39:58.746Z,5.71
2023-01-13T08:45:00.274Z,5.76
2023-01-13T08:50:03.653Z,5.80
2023-01-13T08:55:06.253Z,5.87
2023-01-13T09:00:10.913Z,5.99
2023-01-13T09:05:15.119Z,6.16
2023-01-13T09:10:17.706Z,6.31
2023-01-13T09:15:19.192Z,6.39
2023-01-13T09:20:22.141Z,6.62
2023-01-13T09:25:23.627Z,6.97
2023-01-13T09:30:25.117Z,6.95
2023-01-13T09:35:27.956Z,7.32
2023-01-13T09:40:29.574Z,7.11
2023-01-13T09:45:37.398Z,7.18
2023-01-13T09:50:55.027Z,6.98
2023-01-13T09:55:56.628Z,7.17
2023-01-13T10:01:12.895Z,7.02
2023-01-13T10:06:21.155Z,7.26
2023-01-13T10:11:24.494Z,7.25
2023-01-13T10:16:34.852Z,7.44
2023-01-13T10:21:53.539Z,7.27
2023-01-13T10:27:02.921Z,7.28
2023-01-13T10:32:04.743Z,7.36
2023-01-13T10:37:20.728Z,7.42
2023-01-13T10:42:23.381Z,7.70
2023-01-13T10:47:27.157Z,7.72
2023-01-13T10:52:32.440Z,7.63
2023-01-13T10:57:36.762Z,7.46
2023-01-13T11:02:38.321Z,7.25
2023-01-13T11:07:46.947Z,7.20
2023-01-13T11:12:58.123Z,7.31
2023-01-13T11:18:02.968Z,7.12
2023-01-13T11:23:13.429Z,7.34
2023-01-13T11:28:33.342Z,7.28
2023-01-13T11:33:41.400Z,7.29
2023-01-13T11:38:50.757Z,7.35
2023-01-13T11:43:55.613Z,7.32
2023-01-13T11:48:57.194Z,7.71
2023-01-13T11:54:22.977Z,8.01
2023-01-13T11:59:42.912Z,7.99
2023-01-13T12:04:53.150Z,8.01
2023-01-13T12:10:09.916Z,7.96
2023-01-13T12:15:35.767Z,5.09
2023-01-13T12:20:47.145Z,3.70
2023-01-13T12:25:58.133Z,2.99
2023-01-13T12:31:01.603Z,2.67
2023-01-13T12:36:12.637Z,2.61
2023-01-13T12:41:28.300Z,2.50
2023-01-13T12:46:50.963Z,2.69
2023-01-13T12:52:12.104Z,2.43
2023-01-13T12:57:21.565Z,2.66
2023-01-13T13:02:32.899Z,3.11
2023-01-13T13:07:41.469Z,3.17
2023-01-13T13:12:53.703Z,3.35
2023-01-13T13:18:19.179Z,3.71
2023-01-13T13:23:43.858Z,3.69
2023-01-13T13:28:56.213Z,3.65
2023-01-13T13:34:14.079Z,3.80
2023-01-13T13:39:23.074Z,4.01
2023-01-13T13:44:30.221Z,3.87
2023-01-13T13:49:37.056Z,4.04
2023-01-13T13:54:41.087Z,4.25
2023-01-13T13:59:43.985Z,4.33
2023-01-13T14:04:45.588Z,4.47
2023-01-13T14:09:49.820Z,4.70
2023-01-13T14:14:53.210Z,4.79
2023-01-13T14:19:59.186Z,5.00
2023-01-13T14:25:00.728Z,4.96
2023-01-13T14:30:06.630Z,4.93
2023-01-13T14:35:08.662Z,4.99
2023-01-13T14:40:43.156Z,5.33
2023-01-13T14:45:57.033Z,5.09
2023-01-13T14:50:59.863Z,5.32
2023-01-13T14:56:34.886Z,5.14
2023-01-13T15:01:38.139Z,5.27
2023-01-13T15:06:39.702Z,5.39
2023-01-13T15:11:41.270Z,5.30
2023-01-13T15:16:44.172Z,5.34
2023-01-13T15:21:45.710Z,5.19
2023-01-13T15:26:47.179Z,5.31
2023-01-13T15:31:49.980Z,5.34
2023-01-13T15:36:51.475Z,5.53
2023-01-13T15:41:52.933Z,5.72
2023-01-13T15:46:56.999Z,5.85
2023-01-13T15:51:58.567Z,5.44
2023-01-13T15:57:00.680Z,5.39
2023-01-13T16:02:03.521Z,5.64
2023-01-13T16:07:13.466Z,5.71
2023-01-13T16:12:14.954Z,5.82
2023-01-13T16:17:20.992Z,5.75
2023-01-13T16:22:22.504Z,5.62
2023-01-13T16:27:25.040Z,5.54
2023-01-13T16:32:27.840Z,5.55
2023-01-13T16:37:29.394Z,5.74
2023-01-13T16:42:30.889Z,5.66
2023-01-13T16:47:33.640Z,5.72
2023-01-13T16:52:35.161Z,5.74
2023-01-13T16:57:37.746Z,5.86
2023-01-13T17:02:40.564Z,5.90
2023-01-13T17:07:43.778Z,5.71
2023-01-13T17:12:45.458Z,5.55
2023-01-13T17:17:48.382Z,5.64
2023-01-13T17:22:57.840Z,5.53
2023-01-13T17:28:00.056Z,5.45
2023-01-13T17:33:02.925Z,5.44
2023-01-13T17:38:04.465Z,5.35
2023-01-13T17:43:05.942Z,5.36
2023-01-13T17:48:08.829Z,5.49
2023-01-13T17:53:10.263Z,5.39
2023-01-13T17:58:11.681Z,5.17
2023-01-13T18:03:14.754Z,5.10
2023-01-13T18:08:16.384Z,5.15
2023-01-13T18:13:17.907Z,5.11
2023-01-13T18:18:20.786Z,5.07
2023-01-13T18:23:22.884Z,5.07
2023-01-13T18:28:25.311Z,4.60
2023-01-13T18:33:28.224Z,4.10
2023-01-13T18:38:30.043Z,3.56
2023-01-13T18:43:32.547Z,3.22
2023-01-13T18:48:35.449Z,3.07
2023-01-13T18:53:36.905Z,2.88
2023-01-13T18:58:39.380Z,2.76
2023-01-13T19:03:42.254Z,2.60
2023-01-13T19:08:43.770Z,2.45
2023-01-13T19:13:45.213Z,2.54
2023-01-13T19:18:48.682Z,2.42
2023-01-13T19:23:53.395Z,2.39
2023-01-13T19:28:54.839Z,2.56
2023-01-13T19:33:57.663Z,2.44
2023-01-13T19:38:59.154Z,2.52
2023-01-13T19:44:00.625Z,2.27
2023-01-13T19:49:03.569Z,2.56
2023-01-13T19:54:05.180Z,2.56
2023-01-13T19:59:06.863Z,2.66
2023-01-13T20:04:10.103Z,2.42
2023-01-13T20:09:11.894Z,2.54
2023-01-13T20:14:13.414Z,2.65
2023-01-13T20:19:16.357Z,2.67
2023-01-13T20:24:17.890Z,2.69
2023-01-13T20:29:19.424Z,2.53
2023-01-13T20:34:22.555Z,2.47
2023-01-13T20:39:25.916Z,2.54
2023-01-13T20:44:27.502Z,2.64
2023-01-13T20:49:30.970Z,2.67
2023-01-13T20:54:32.564Z,2.56
2023-01-13T20:59:34.216Z,2.60
2023-01-13T21:04:37.132Z,2.70
2023-01-13T21:09:38.681Z,2.46
2023-01-13T21:14:40.252Z,2.55
2023-01-13T21:19:43.158Z,2.44
2023-01-13T21:24:44.616Z,2.39
2023-01-13T21:29:46.235Z,2.29
2023-01-13T21:34:49.127Z,2.16
2023-01-13T21:39:50.696Z,2.01
2023-01-13T21:44:52.211Z,1.90
2023-01-13T21:49:55.754Z,1.95
2023-01-13T21:54:57.362Z,1.94
2023-01-13T21:59:58.862Z,1.92
2023-01-13T22:05:03.407Z,1.88
2023-01-13T22:10:07.245Z,1.77
2023-01-13T22:15:10.728Z,2.09
2023-01-13T22:20:14.091Z,2.09
2023-01-13T22:25:16.778Z,2.08
2023-01-13T22:30:20.086Z,2.26
2023-01-13T22:35:22.903Z,2.24
2023-01-13T22:40:24.449Z,2.15
2023-01-13T22:45:25.903Z,2.20
2023-01-13T22:50:28.755Z,2.19
2023-01-13T22:55:30.301Z,2.23
2023-01-13T23:00:32.034Z,2.14
2023-01-13T23:05:34.869Z,2.15
2023-01-13T23:10:36.323Z,2.18
2023-01-13T23:15:37.784Z,2.16
2023-01-13T23:20:40.633Z,2.17
2023-01-13T23:25:49.069Z,2.21
2023-01-13T23:30:50.990Z,2.21
2023-01-13T23:35:58.311Z,2.23
2023-01-13T23:41:00.254Z,2.30
2023-01-13T23:46:03.021Z,2.32
2023-01-13T23:51:09.911Z,2.40
2023-01-13T23:56:13.458Z,2.35
